Time;durP1;ratioP1;P1;durP2;ratioP2;P2;SDS_P1;SDS_P2;PMS_P1;PMS_P2;Temp;Humidity;BMP_temperature;BMP_pressure;BME280_temperature;BME280_humidity;BME280_pressure;Samples;Min_cycle;Max_cycle;Signal;HPM_P1;HPM_P2
2021/12/10 00:00:20;;;;;;;5.70;3.90;;;5.60;99.90;;;;;;5053617;28;20029;-54
2021/12/10 00:02:47;;;;;;;5.70;4.45;;;5.70;99.90;;;;;;5055059;28;20079;-50
2021/12/10 00:05:16;;;;;;;5.88;3.78;;;5.60;99.90;;;;;;5052856;28;20029;-50
2021/12/10 00:07:44;;;;;;;5.28;3.40;;;5.60;99.90;;;;;;5053983;28;20044;-50
2021/12/10 00:10:14;;;;;;;6.35;4.07;;;5.90;99.90;;;;;;5053070;28;20111;-51
2021/12/10 00:12:47;;;;;;;5.47;3.75;;;5.90;99.90;;;;;;5053134;28;20076;-51
2021/12/10 00:15:13;;;;;;;5.15;3.10;;;5.80;99.90;;;;;;5053051;28;20033;-49
2021/12/10 00:17:39;;;;;;;6.00;3.25;;;5.80;99.90;;;;;;5053774;28;20069;-50
2021/12/10 00:20:07;;;;;;;5.55;3.63;;;5.60;99.90;;;;;;5054105;28;20021;-50
2021/12/10 00:22:51;;;;;;;5.68;3.28;;;5.60;99.90;;;;;;5053146;28;20575;-52
2021/12/10 00:25:22;;;;;;;5.07;3.10;;;5.60;99.90;;;;;;5052830;28;20088;-52
2021/12/10 00:27:50;;;;;;;5.23;3.47;;;5.80;99.90;;;;;;5054247;28;20082;-49
2021/12/10 00:30:25;;;;;;;3.70;2.30;;;6.00;99.90;;;;;;5052917;28;20037;-49
2021/12/10 00:33:02;;;;;;;4.63;2.30;;;6.10;99.90;;;;;;5053392;28;20120;-54
2021/12/10 00:35:31;;;;;;;4.70;2.15;;;6.30;99.90;;;;;;5052673;28;20027;-50
2021/12/10 00:37:57;;;;;;;4.15;2.35;;;6.30;99.90;;;;;;5052451;28;20029;-49
2021/12/10 00:40:25;;;;;;;4.40;2.50;;;6.30;99.90;;;;;;5052814;28;20033;-49
2021/12/10 00:42:52;;;;;;;3.25;2.53;;;6.30;99.90;;;;;;5053285;28;20111;-50
2021/12/10 00:45:19;;;;;;;4.18;2.58;;;6.40;99.90;;;;;;5053951;28;20028;-50
2021/12/10 00:47:46;;;;;;;3.35;2.20;;;6.20;99.90;;;;;;5053304;28;20052;-49
2021/12/10 00:50:17;;;;;;;6.50;2.05;;;6.10;99.90;;;;;;5053631;28;20032;-50
2021/12/10 00:52:43;;;;;;;3.30;2.40;;;6.20;99.90;;;;;;5052239;28;20025;-52
2021/12/10 00:55:10;;;;;;;5.60;3.45;;;6.10;99.90;;;;;;5053059;28;20029;-49
2021/12/10 00:57:36;;;;;;;3.15;2.80;;;6.00;99.90;;;;;;5052128;28;20029;-55
2021/12/10 01:00:08;;;;;;;5.78;3.05;;;5.90;99.90;;;;;;5052161;28;20021;-50
2021/12/10 01:02:34;;;;;;;6.07;3.00;;;5.70;99.90;;;;;;5052149;28;20103;-49
2021/12/10 01:05:01;;;;;;;5.78;3.33;;;5.50;99.90;;;;;;5053317;28;20114;-49
2021/12/10 01:07:31;;;;;;;5.60;2.92;;;5.30;99.90;;;;;;5053327;28;20431;-49
2021/12/10 01:10:00;;;;;;;7.20;4.25;;;5.30;99.90;;;;;;5052910;28;20029;-50
2021/12/10 01:12:48;;;;;;;9.52;4.28;;;5.10;99.90;;;;;;5052032;28;20029;-49
2021/12/10 01:23:50;;;;;;;7.47;3.92;;;5.20;99.90;;;;;;5053366;28;20083;-54
2021/12/10 01:28:50;;;;;;;7.82;4.55;;;5.40;99.90;;;;;;5053400;28;20368;-52
2021/12/10 01:31:17;;;;;;;11.48;5.80;;;5.50;99.90;;;;;;5053134;28;20060;-53
2021/12/10 01:33:44;;;;;;;8.65;5.28;;;5.30;99.90;;;;;;5052134;28;20036;-54
2021/12/10 01:36:10;;;;;;;7.88;4.90;;;5.30;99.90;;;;;;5053009;28;20022;-50
2021/12/10 01:38:39;;;;;;;8.98;5.40;;;5.30;99.90;;;;;;5051691;28;20040;-53
2021/12/10 01:41:09;;;;;;;8.27;4.85;;;5.10;99.90;;;;;;5051722;28;20025;-51
2021/12/10 01:43:39;;;;;;;15.60;6.03;;;5.10;99.90;;;;;;5051651;28;20021;-51
2021/12/10 01:46:12;;;;;;;10.63;5.30;;;5.20;99.90;;;;;;5051666;28;20014;-50
2021/12/10 01:48:42;;;;;;;13.10;5.20;;;5.20;99.90;;;;;;5052956;28;20025;-49
2021/12/10 01:51:09;;;;;;;9.02;4.10;;;5.20;99.90;;;;;;5052982;28;20075;-52
2021/12/10 01:53:37;;;;;;;11.60;4.50;;;5.00;99.90;;;;;;5052727;28;20059;-51
2021/12/10 01:56:09;;;;;;;8.50;4.20;;;4.90;99.90;;;;;;5051641;28;20467;-50
2021/12/10 01:58:35;;;;;;;12.20;4.50;;;5.00;99.90;;;;;;5051497;28;20035;-49
2021/12/10 02:01:06;;;;;;;6.93;3.85;;;5.00;99.90;;;;;;5051639;28;20373;-55
2021/12/10 02:03:32;;;;;;;11.55;4.85;;;4.90;99.90;;;;;;5051490;28;20021;-49
2021/12/10 02:05:58;;;;;;;10.18;4.88;;;4.70;99.90;;;;;;5051533;28;20048;-50
2021/12/10 02:08:24;;;;;;;13.15;4.90;;;4.60;99.90;;;;;;5051565;28;20036;-52
2021/12/10 02:10:50;;;;;;;12.60;5.70;;;4.60;99.90;;;;;;5053061;28;20025;-51
2021/12/10 02:13:15;;;;;;;10.45;6.22;;;4.60;99.90;;;;;;5052769;28;20057;-52
2021/12/10 02:15:42;;;;;;;11.63;6.00;;;4.70;99.90;;;;;;5052730;28;20075;-52
2021/12/10 02:18:09;;;;;;;11.23;6.10;;;4.70;99.90;;;;;;5052908;28;20383;-55
2021/12/10 02:20:52;;;;;;;12.27;5.78;;;4.70;99.90;;;;;;5052902;28;20032;-53
2021/12/10 02:23:19;;;;;;;12.40;6.05;;;4.70;99.90;;;;;;5051329;28;20021;-53
2021/12/10 02:25:45;;;;;;;8.80;5.95;;;4.80;99.90;;;;;;5052204;28;20021;-49
2021/12/10 02:28:12;;;;;;;13.43;5.80;;;4.90;99.90;;;;;;5055538;28;20068;-50
2021/12/10 02:30:39;;;;;;;11.90;6.47;;;4.90;99.90;;;;;;5055265;28;20029;-52
2021/12/10 02:33:06;;;;;;;8.52;5.55;;;4.80;99.90;;;;;;5056159;28;20025;-50
2021/12/10 02:35:33;;;;;;;13.23;5.70;;;4.80;99.90;;;;;;5056130;28;20025;-51
2021/12/10 02:37:59;;;;;;;10.82;5.97;;;5.00;99.90;;;;;;5055918;28;20070;-54
2021/12/10 02:40:28;;;;;;;12.65;5.63;;;5.00;99.90;;;;;;5055313;28;20107;-49
2021/12/10 02:42:56;;;;;;;12.52;5.72;;;5.10;99.90;;;;;;5054721;28;20020;-52
2021/12/10 02:45:23;;;;;;;12.65;5.57;;;5.30;99.90;;;;;;5055024;28;20021;-50
2021/12/10 02:47:49;;;;;;;12.60;6.15;;;5.30;99.90;;;;;;5056509;28;20017;-50
2021/12/10 02:50:18;;;;;;;16.55;5.72;;;5.30;99.90;;;;;;5054623;28;20032;-50
2021/12/10 02:52:44;;;;;;;9.70;5.47;;;5.20;99.90;;;;;;5054443;28;20043;-49
2021/12/10 02:55:10;;;;;;;9.38;5.75;;;5.20;99.90;;;;;;5055870;28;20025;-50
2021/12/10 02:57:38;;;;;;;10.43;5.65;;;5.00;99.90;;;;;;5055683;28;20043;-51
2021/12/10 03:00:11;;;;;;;12.25;5.70;;;4.90;99.90;;;;;;5055624;28;20021;-50
2021/12/10 03:02:37;;;;;;;9.60;4.93;;;4.80;99.90;;;;;;5056231;28;20111;-49
2021/12/10 03:05:05;;;;;;;9.45;5.10;;;5.00;99.90;;;;;;5055616;28;20024;-49
2021/12/10 03:07:31;;;;;;;14.95;5.10;;;5.20;99.90;;;;;;5055814;28;20108;-49
2021/12/10 03:09:57;;;;;;;11.13;5.07;;;5.30;99.90;;;;;;5054169;28;20025;-51
2021/12/10 03:12:23;;;;;;;9.40;4.80;;;5.30;99.90;;;;;;5054499;28;20036;-53
2021/12/10 03:14:54;;;;;;;9.57;5.35;;;5.20;99.90;;;;;;5055299;28;20040;-50
2021/12/10 03:17:27;;;;;;;12.98;5.75;;;5.10;99.90;;;;;;5054554;28;20418;-52
2021/12/10 03:19:54;;;;;;;15.32;5.47;;;4.90;99.90;;;;;;5054643;28;20025;-50
2021/12/10 03:22:20;;;;;;;14.68;5.88;;;4.90;99.90;;;;;;5054004;28;20028;-50
2021/12/10 03:24:46;;;;;;;9.48;5.57;;;4.70;99.90;;;;;;5055106;28;20025;-51
2021/12/10 03:27:14;;;;;;;11.75;5.35;;;4.60;99.90;;;;;;5055469;28;20033;-49
2021/12/10 03:29:42;;;;;;;12.68;5.38;;;4.60;99.90;;;;;;5055152;28;20074;-53
2021/12/10 03:32:15;;;;;;;11.65;4.72;;;4.80;99.90;;;;;;5053781;28;20116;-50
2021/12/10 03:34:42;;;;;;;10.77;5.20;;;4.90;99.90;;;;;;5054054;28;20109;-50
2021/12/10 03:37:27;;;;;;;10.30;5.88;;;4.90;99.90;;;;;;5054924;28;20032;-51
2021/12/10 03:39:53;;;;;;;17.42;5.00;;;4.90;99.90;;;;;;5053008;28;20060;-53
2021/12/10 03:42:19;;;;;;;13.60;6.10;;;4.90;99.90;;;;;;5054866;28;20021;-51
2021/12/10 03:44:45;;;;;;;12.07;5.13;;;4.70;99.90;;;;;;5054992;28;20078;-53
2021/12/10 03:47:11;;;;;;;13.10;4.95;;;4.70;99.90;;;;;;5055066;28;20025;-49
2021/12/10 03:49:38;;;;;;;13.15;5.22;;;4.70;99.90;;;;;;5054300;28;20075;-53
2021/12/10 03:52:07;;;;;;;9.57;5.30;;;4.70;99.90;;;;;;5054682;28;20029;-50
2021/12/10 03:54:33;;;;;;;23.27;5.75;;;4.70;99.90;;;;;;5054477;28;20045;-49
2021/12/10 03:56:59;;;;;;;8.73;5.00;;;4.60;99.90;;;;;;5054529;28;20029;-54
2021/12/10 03:59:25;;;;;;;15.30;5.22;;;4.60;99.90;;;;;;5054853;28;20032;-56
2021/12/10 04:01:55;;;;;;;14.27;5.45;;;4.60;99.90;;;;;;5053261;28;20032;-49
2021/12/10 04:04:31;;;;;;;12.73;6.10;;;4.60;99.90;;;;;;5053247;28;20025;-51
2021/12/10 04:06:59;;;;;;;15.98;5.70;;;4.60;99.90;;;;;;5054486;28;20479;-50
2021/12/10 04:09:25;;;;;;;13.63;5.38;;;4.60;99.90;;;;;;5054713;28;20032;-51
2021/12/10 04:11:52;;;;;;;13.15;5.88;;;4.50;99.90;;;;;;5053161;28;20021;-52
2021/12/10 04:14:18;;;;;;;17.90;6.80;;;4.40;99.90;;;;;;5052939;28;20025;-53
2021/12/10 04:16:44;;;;;;;15.80;7.18;;;4.30;99.90;;;;;;5052967;28;20036;-52
2021/12/10 04:19:14;;;;;;;21.95;6.53;;;4.30;99.90;;;;;;5052936;28;20052;-51
2021/12/10 04:21:41;;;;;;;13.73;7.00;;;4.20;99.90;;;;;;5052950;28;20110;-49
2021/12/10 04:24:16;;;;;;;12.15;6.25;;;4.30;99.90;;;;;;5052818;28;20031;-52
2021/12/10 04:26:43;;;;;;;18.00;6.88;;;4.20;99.90;;;;;;5054083;28;20017;-53
2021/12/10 04:29:09;;;;;;;17.85;6.57;;;4.20;99.90;;;;;;5053598;28;20045;-53
2021/12/10 04:31:35;;;;;;;19.90;7.47;;;4.20;99.90;;;;;;5052721;28;20027;-54
2021/12/10 04:34:01;;;;;;;19.17;5.95;;;4.20;99.90;;;;;;5053827;28;20100;-52
2021/12/10 04:36:27;;;;;;;14.93;6.15;;;4.10;99.90;;;;;;5053847;28;20075;-54
2021/12/10 04:38:53;;;;;;;11.20;5.10;;;4.10;99.90;;;;;;5053796;28;20032;-52
2021/12/10 04:41:19;;;;;;;21.77;6.70;;;3.90;99.90;;;;;;5054066;28;20025;-49
2021/12/10 04:43:47;;;;;;;14.27;6.28;;;4.00;99.90;;;;;;5053823;28;20071;-56
2021/12/10 04:46:13;;;;;;;16.83;6.45;;;4.00;99.90;;;;;;5052702;28;20024;-52
2021/12/10 04:48:58;;;;;;;17.52;5.28;;;4.00;99.90;;;;;;5052726;28;20036;-51
2021/12/10 04:51:34;;;;;;;15.73;5.90;;;4.00;99.90;;;;;;5051555;28;20028;-51
2021/12/10 04:54:01;;;;;;;15.77;5.90;;;4.00;99.90;;;;;;5052448;28;20065;-50
2021/12/10 04:56:28;;;;;;;16.05;4.78;;;4.00;99.90;;;;;;5052322;28;20025;-49
2021/12/10 04:58:54;;;;;;;16.15;5.53;;;4.00;99.90;;;;;;5053135;28;20075;-52
2021/12/10 05:01:20;;;;;;;15.82;5.78;;;4.00;99.90;;;;;;5052236;28;20028;-50
2021/12/10 05:03:47;;;;;;;14.13;5.53;;;4.00;99.90;;;;;;5052168;28;20021;-51
2021/12/10 05:06:12;;;;;;;14.15;5.30;;;4.00;99.90;;;;;;5052106;28;20024;-54
2021/12/10 05:08:39;;;;;;;17.88;5.28;;;4.00;99.90;;;;;;5053590;28;20021;-49
2021/12/10 05:11:08;;;;;;;13.27;5.70;;;4.10;99.90;;;;;;5052153;28;20035;-50
2021/12/10 05:13:35;;;;;;;13.07;5.85;;;4.00;99.90;;;;;;5052274;28;20078;-49
2021/12/10 05:16:01;;;;;;;11.77;4.82;;;4.00;99.90;;;;;;5053300;28;20476;-49
2021/12/10 05:18:30;;;;;;;20.13;5.57;;;3.80;99.90;;;;;;5053242;28;20090;-53
2021/12/10 05:20:56;;;;;;;16.85;5.13;;;3.90;99.90;;;;;;5052228;28;20025;-49
2021/12/10 05:23:22;;;;;;;16.75;5.20;;;3.80;99.90;;;;;;5053436;28;20028;-51
2021/12/10 05:25:49;;;;;;;15.63;4.70;;;3.70;99.90;;;;;;5053131;28;20017;-51
2021/12/10 05:28:16;;;;;;;20.10;5.20;;;3.80;99.90;;;;;;5052777;28;20033;-49
2021/12/10 05:30:43;;;;;;;23.05;4.97;;;3.80;99.90;;;;;;5053179;28;20032;-50
2021/12/10 05:33:14;;;;;;;13.90;4.82;;;3.90;99.90;;;;;;5051725;28;20036;-49
2021/12/10 05:35:40;;;;;;;16.35;4.40;;;3.90;99.90;;;;;;5052658;28;20055;-51
2021/12/10 05:38:06;;;;;;;9.40;3.85;;;3.90;99.90;;;;;;5053033;28;20061;-52
2021/12/10 05:40:32;;;;;;;12.48;4.88;;;3.90;99.90;;;;;;5053063;28;20025;-53
2021/12/10 05:42:57;;;;;;;10.35;4.35;;;3.90;99.90;;;;;;5051710;28;20029;-52
2021/12/10 05:45:23;;;;;;;10.98;3.92;;;4.00;99.90;;;;;;5053252;28;20387;-49
2021/12/10 05:47:49;;;;;;;12.20;3.90;;;4.10;99.90;;;;;;5052892;28;20108;-50
2021/12/10 05:50:18;;;;;;;11.38;3.83;;;4.10;99.90;;;;;;5052557;28;20112;-50
2021/12/10 05:52:45;;;;;;;17.17;4.05;;;4.20;99.90;;;;;;5051943;28;20025;-51
2021/12/10 05:55:10;;;;;;;9.10;3.63;;;4.20;99.90;;;;;;5051713;28;20395;-51
2021/12/10 05:57:37;;;;;;;10.80;2.85;;;4.30;99.90;;;;;;5052934;28;20108;-51
2021/12/10 06:00:09;;;;;;;11.25;2.80;;;4.30;99.90;;;;;;5051646;28;20026;-52
2021/12/10 06:02:34;;;;;;;7.53;3.38;;;4.30;99.90;;;;;;5054829;28;20024;-49
2021/12/10 06:05:00;;;;;;;13.02;3.58;;;4.10;99.90;;;;;;5056811;28;20025;-51
2021/12/10 06:07:26;;;;;;;16.77;2.85;;;4.00;99.90;;;;;;5055836;28;20063;-49
2021/12/10 06:09:52;;;;;;;11.32;2.90;;;4.10;99.90;;;;;;5056972;28;20104;-51
2021/12/10 06:12:17;;;;;;;9.90;3.17;;;4.10;99.90;;;;;;5056644;28;20053;-50
2021/12/10 06:14:43;;;;;;;11.50;3.08;;;4.10;99.90;;;;;;5056770;28;20056;-52
2021/12/10 06:17:09;;;;;;;7.68;2.88;;;4.00;99.90;;;;;;5056723;28;20025;-51
2021/12/10 06:19:35;;;;;;;5.68;2.60;;;4.00;99.90;;;;;;5055219;28;20045;-51
2021/12/10 06:22:01;;;;;;;6.07;3.13;;;3.80;99.90;;;;;;5055111;28;20017;-49
2021/12/10 06:24:27;;;;;;;10.25;2.95;;;3.70;99.90;;;;;;5055093;28;20445;-51
2021/12/10 06:26:52;;;;;;;11.95;4.25;;;3.60;99.90;;;;;;5056331;28;20025;-50
2021/12/10 06:29:23;;;;;;;12.20;3.38;;;3.60;99.90;;;;;;5056567;28;20028;-52
2021/12/10 06:31:49;;;;;;;10.82;3.20;;;3.60;99.90;;;;;;5056297;28;20029;-54
2021/12/10 06:34:14;;;;;;;8.35;2.50;;;3.60;99.90;;;;;;5056153;28;20108;-54
2021/12/10 06:36:40;;;;;;;9.13;2.60;;;3.60;99.90;;;;;;5054784;28;20124;-51
2021/12/10 06:39:07;;;;;;;8.05;2.38;;;3.60;99.90;;;;;;5055434;28;20021;-51
2021/12/10 06:41:33;;;;;;;10.05;3.15;;;3.60;99.90;;;;;;5056100;28;20021;-53
2021/12/10 06:44:04;;;;;;;5.10;2.78;;;3.50;99.90;;;;;;5056109;28;20025;-52
2021/12/10 06:46:33;;;;;;;8.02;3.40;;;3.40;99.90;;;;;;5056016;28;20024;-52
2021/12/10 06:48:59;;;;;;;7.15;3.47;;;3.30;99.90;;;;;;5055932;28;20032;-49
2021/12/10 06:51:25;;;;;;;9.68;3.60;;;3.30;99.90;;;;;;5055527;28;20033;-51
2021/12/10 06:53:51;;;;;;;13.27;3.28;;;3.20;99.90;;;;;;5055691;28;20039;-49
2021/12/10 06:56:18;;;;;;;13.95;5.10;;;3.20;99.90;;;;;;5055730;28;20032;-53
2021/12/10 06:58:44;;;;;;;15.85;4.53;;;3.10;99.90;;;;;;5055630;28;20029;-52
2021/12/10 07:01:32;;;;;;;7.82;2.80;;;3.00;99.90;;;;;;5055276;28;20021;-54
2021/12/10 07:03:59;;;;;;;9.75;2.53;;;3.00;99.90;;;;;;5055574;28;20028;-52
2021/12/10 07:06:27;;;;;;;11.70;3.55;;;3.00;99.90;;;;;;5055838;28;20029;-52
2021/12/10 07:08:55;;;;;;;2.75;2.08;;;2.90;99.90;;;;;;5054495;28;20036;-53
2021/12/10 07:11:22;;;;;;;7.55;2.78;;;2.80;99.90;;;;;;5054271;28;20029;-49
2021/12/10 07:13:52;;;;;;;8.55;2.92;;;2.90;99.90;;;;;;5054193;28;20029;-53
2021/12/10 07:16:20;;;;;;;9.77;3.03;;;2.90;99.90;;;;;;5054283;28;20035;-56
2021/12/10 07:18:46;;;;;;;14.55;2.38;;;2.90;99.90;;;;;;5055309;28;20021;-54
2021/12/10 07:21:15;;;;;;;9.90;2.75;;;2.90;99.90;;;;;;5054045;28;20032;-54
2021/12/10 07:23:42;;;;;;;9.02;2.22;;;3.00;99.90;;;;;;5055469;28;20085;-50
2021/12/10 07:26:09;;;;;;;18.15;3.03;;;3.00;99.90;;;;;;5054290;28;20025;-54
2021/12/10 07:28:35;;;;;;;8.52;2.30;;;2.90;99.90;;;;;;5055209;28;20033;-52
2021/12/10 07:31:02;;;;;;;7.43;2.33;;;2.80;99.90;;;;;;5054296;28;20024;-52
2021/12/10 07:33:28;;;;;;;12.85;3.22;;;2.70;99.90;;;;;;5055126;28;20028;-53
2021/12/10 07:35:54;;;;;;;9.65;3.25;;;2.70;99.90;;;;;;5054303;28;20111;-53
2021/12/10 07:38:20;;;;;;;7.15;1.92;;;2.60;99.90;;;;;;5053811;28;20111;-51
2021/12/10 07:40:47;;;;;;;7.75;2.33;;;2.70;99.90;;;;;;5053679;28;20025;-51
2021/12/10 07:43:13;;;;;;;4.45;1.92;;;2.80;99.90;;;;;;5053616;28;20025;-52
2021/12/10 07:45:42;;;;;;;13.70;2.60;;;2.70;99.90;;;;;;5053591;28;20032;-52
2021/12/10 07:48:11;;;;;;;11.48;2.10;;;2.80;99.90;;;;;;5053449;28;20112;-51
2021/12/10 07:50:42;;;;;;;6.03;2.03;;;3.00;99.90;;;;;;5053492;28;20056;-50
2021/12/10 07:53:08;;;;;;;5.10;2.00;;;3.10;99.90;;;;;;5054049;28;20063;-53
2021/12/10 07:55:36;;;;;;;9.15;2.13;;;3.30;99.90;;;;;;5053337;28;20055;-55
2021/12/10 07:58:05;;;;;;;7.55;1.80;;;3.50;99.90;;;;;;5053360;28;20025;-53
2021/12/10 08:00:36;;;;;;;4.05;1.42;;;3.50;99.90;;;;;;5053687;28;20055;-49
2021/12/10 08:03:02;;;;;;;9.55;1.88;;;3.50;99.90;;;;;;5054529;28;20028;-50
2021/12/10 08:05:28;;;;;;;10.95;1.77;;;3.40;99.90;;;;;;5053492;28;20490;-51
2021/12/10 08:07:55;;;;;;;6.88;1.50;;;3.60;99.90;;;;;;5054417;28;20029;-51
2021/12/10 08:10:21;;;;;;;9.10;1.70;;;4.00;99.90;;;;;;5053233;28;20025;-49
2021/12/10 08:12:47;;;;;;;11.48;2.00;;;4.50;99.90;;;;;;5053092;28;20025;-53
2021/12/10 08:15:14;;;;;;;7.20;2.00;;;4.70;99.90;;;;;;5054600;28;20025;-50
2021/12/10 08:17:42;;;;;;;5.78;1.77;;;5.00;99.90;;;;;;5053260;28;20021;-50
2021/12/10 08:20:09;;;;;;;7.03;2.20;;;5.20;99.90;;;;;;5052970;28;20391;-51
2021/12/10 08:22:35;;;;;;;6.88;3.35;;;5.40;99.90;;;;;;5054134;28;20029;-53
2021/12/10 08:25:01;;;;;;;5.35;1.65;;;5.70;99.90;;;;;;5053758;28;20027;-54
2021/12/10 08:27:27;;;;;;;7.82;1.88;;;5.80;99.90;;;;;;5054414;28;20082;-49
2021/12/10 08:29:53;;;;;;;9.48;2.42;;;5.80;99.90;;;;;;5054094;28;20059;-50
2021/12/10 08:32:21;;;;;;;7.25;2.45;;;5.80;99.90;;;;;;5053976;28;20021;-49
2021/12/10 08:34:48;;;;;;;8.80;1.92;;;5.80;99.90;;;;;;5054204;28;20490;-51
2021/12/10 08:37:15;;;;;;;7.55;2.13;;;5.70;99.90;;;;;;5053874;28;20033;-50
2021/12/10 08:39:42;;;;;;;6.93;1.77;;;5.60;99.90;;;;;;5053851;28;20029;-48
2021/12/10 08:42:07;;;;;;;9.50;1.85;;;5.90;99.90;;;;;;5053820;28;20025;-50
2021/12/10 08:44:33;;;;;;;14.93;2.33;;;6.00;99.90;;;;;;5052751;28;20387;-51
2021/12/10 08:47:00;;;;;;;3.28;1.67;;;6.20;99.90;;;;;;5052839;28;20029;-51
2021/12/10 08:49:27;;;;;;;13.65;2.22;;;6.60;99.90;;;;;;5053664;28;20080;-53
2021/12/10 08:51:57;;;;;;;10.75;2.05;;;7.10;99.90;;;;;;5052693;28;20025;-48
2021/12/10 08:54:27;;;;;;;5.32;1.83;;;7.40;99.90;;;;;;5052133;28;20036;-52
2021/12/10 08:56:53;;;;;;;8.07;1.85;;;7.80;99.90;;;;;;5053130;28;20041;-52
2021/12/10 08:59:22;;;;;;;6.95;1.60;;;7.70;99.90;;;;;;5053513;28;20028;-52
2021/12/10 09:01:51;;;;;;;5.78;2.22;;;7.80;99.90;;;;;;5052268;28;20078;-52
2021/12/10 09:04:17;;;;;;;9.02;1.83;;;8.00;99.90;;;;;;5052168;28;20074;-50
2021/12/10 09:06:49;;;;;;;6.00;2.45;;;8.10;99.90;;;;;;5052193;28;20017;-55
2021/12/10 09:09:16;;;;;;;8.25;2.17;;;7.90;99.90;;;;;;5053429;28;20025;-53
2021/12/10 09:11:46;;;;;;;6.93;2.00;;;8.10;99.90;;;;;;5053333;28;20032;-53
2021/12/10 09:14:13;;;;;;;8.18;1.83;;;8.30;99.90;;;;;;5053874;28;20021;-50
2021/12/10 09:16:39;;;;;;;8.52;2.47;;;8.40;99.90;;;;;;5053246;28;20029;-53
2021/12/10 09:19:07;;;;;;;7.50;2.35;;;8.70;99.90;;;;;;5053183;28;20372;-50
2021/12/10 09:21:35;;;;;;;5.70;1.70;;;9.10;99.90;;;;;;5052215;28;20043;-51
2021/12/10 09:24:05;;;;;;;9.52;2.20;;;9.40;99.90;;;;;;5053160;28;20523;-52
2021/12/10 09:26:35;;;;;;;6.07;2.37;;;9.20;99.90;;;;;;5053284;28;20017;-48
2021/12/10 09:29:05;;;;;;;5.15;2.00;;;9.30;99.90;;;;;;5051809;28;20091;-50
2021/12/10 09:31:31;;;;;;;9.68;2.70;;;8.90;99.90;;;;;;5053128;28;20029;-55
2021/12/10 09:33:58;;;;;;;7.32;2.10;;;8.70;99.90;;;;;;5052989;28;20025;-51
2021/12/10 09:36:25;;;;;;;9.50;2.88;;;8.50;99.90;;;;;;5053292;28;20061;-51
2021/12/10 09:38:52;;;;;;;6.85;2.55;;;8.40;99.90;;;;;;5056659;28;20070;-53
2021/12/10 09:41:19;;;;;;;6.85;2.55;;;8.10;99.90;;;;;;5056286;28;20159;-51
2021/12/10 09:43:45;;;;;;;10.35;2.33;;;8.10;99.90;;;;;;5056161;28;20025;-53
2021/12/10 09:46:11;;;;;;;11.23;2.55;;;7.90;99.90;;;;;;5057145;28;20017;-53
2021/12/10 09:48:39;;;;;;;4.65;1.85;;;7.50;99.90;;;;;;5057035;28;20106;-51
2021/12/10 09:51:17;;;;;;;3.83;2.10;;;7.10;99.90;;;;;;5055793;28;20021;-52
2021/12/10 09:53:45;;;;;;;5.25;1.88;;;7.00;99.90;;;;;;5056930;28;20033;-57
2021/12/10 09:56:12;;;;;;;3.72;1.95;;;7.30;99.90;;;;;;5056961;28;20025;-48
2021/12/10 09:58:38;;;;;;;3.60;1.70;;;7.00;99.90;;;;;;5055570;28;20021;-50
2021/12/10 10:01:08;;;;;;;6.63;1.92;;;7.10;99.90;;;;;;5057188;28;20029;-57
2021/12/10 10:03:38;;;;;;;8.15;2.22;;;7.00;99.90;;;;;;5055472;28;20025;-51
2021/12/10 10:06:06;;;;;;;6.68;2.53;;;6.90;99.90;;;;;;5056819;28;20035;-48
2021/12/10 10:08:32;;;;;;;7.88;2.83;;;6.60;99.90;;;;;;5055708;28;20548;-51
2021/12/10 10:11:06;;;;;;;7.60;2.13;;;6.20;99.90;;;;;;5055429;28;20112;-49
2021/12/10 10:13:38;;;;;;;5.40;1.88;;;6.00;99.90;;;;;;5056163;28;20055;-54
2021/12/10 10:16:05;;;;;;;12.43;2.80;;;5.90;99.90;;;;;;5055725;28;20025;-48
2021/12/10 10:18:35;;;;;;;5.32;2.08;;;6.00;99.90;;;;;;5055306;28;20415;-52
2021/12/10 10:21:06;;;;;;;5.43;1.88;;;6.10;99.90;;;;;;5056137;28;20017;-51
2021/12/10 10:23:32;;;;;;;8.73;2.60;;;6.00;99.90;;;;;;5056350;28;20076;-48
2021/12/10 10:26:05;;;;;;;8.95;2.50;;;5.80;99.90;;;;;;5054559;28;20048;-48
2021/12/10 10:28:30;;;;;;;7.25;2.40;;;5.60;99.90;;;;;;5054798;28;20028;-48
2021/12/10 10:31:05;;;;;;;5.47;1.70;;;5.40;99.90;;;;;;5053700;28;20033;-53
2021/12/10 10:33:34;;;;;;;6.13;2.40;;;5.20;99.90;;;;;;5056131;28;20078;-53
2021/12/10 10:36:05;;;;;;;5.80;1.98;;;5.20;99.90;;;;;;5056181;28;20562;-53
2021/12/10 10:38:31;;;;;;;6.55;2.30;;;5.20;99.90;;;;;;5056109;28;20434;-51
2021/12/10 10:41:01;;;;;;;6.43;2.47;;;5.00;99.90;;;;;;5056426;28;20021;-52
2021/12/10 10:43:28;;;;;;;8.38;2.10;;;5.00;99.90;;;;;;5054691;28;20026;-52
2021/12/10 10:45:56;;;;;;;6.22;2.72;;;4.70;99.90;;;;;;5056039;28;20029;-52
2021/12/10 10:48:22;;;;;;;6.13;2.40;;;4.60;99.90;;;;;;5055169;28;20036;-51
2021/12/10 10:50:48;;;;;;;11.50;2.13;;;4.60;99.90;;;;;;5055252;28;20021;-53
2021/12/10 10:53:16;;;;;;;6.03;2.38;;;4.60;99.90;;;;;;5054552;28;20032;-52
2021/12/10 10:55:52;;;;;;;8.82;2.20;;;4.60;99.90;;;;;;5055033;28;20476;-51
2021/12/10 10:58:21;;;;;;;7.40;3.05;;;4.50;99.90;;;;;;5055709;28;20112;-52
2021/12/10 11:01:08;;;;;;;6.57;2.10;;;4.50;99.90;;;;;;5054408;28;20059;-51
2021/12/10 11:03:40;;;;;;;7.65;2.88;;;4.50;99.90;;;;;;5054319;28;20017;-52
2021/12/10 11:06:12;;;;;;;6.82;1.88;;;4.40;99.90;;;;;;5055580;28;20025;-53
2021/12/10 11:08:45;;;;;;;6.72;2.33;;;4.60;99.90;;;;;;5054333;28;20025;-50
2021/12/10 11:11:28;;;;;;;7.90;3.28;;;4.70;99.90;;;;;;5054296;28;20029;-51
2021/12/10 11:14:14;;;;;;;6.03;1.60;;;4.80;99.90;;;;;;5055387;28;20024;-55
2021/12/10 11:16:43;;;;;;;10.15;2.10;;;4.80;99.90;;;;;;5054497;28;20021;-50
2021/12/10 11:19:13;;;;;;;5.68;2.13;;;4.70;99.90;;;;;;5054272;28;20028;-53
2021/12/10 11:21:42;;;;;;;6.57;1.92;;;4.70;99.90;;;;;;5053954;28;20021;-54
2021/12/10 11:24:20;;;;;;;7.75;2.10;;;4.90;99.90;;;;;;5053924;28;20021;-52
2021/12/10 11:26:57;;;;;;;5.80;1.73;;;4.90;99.90;;;;;;5053923;28;20040;-51
2021/12/10 11:29:47;;;;;;;5.93;2.45;;;5.00;99.90;;;;;;5055154;28;20511;-52
2021/12/10 11:32:25;;;;;;;8.52;1.98;;;5.00;99.90;;;;;;5054973;28;20043;-53
2021/12/10 11:35:02;;;;;;;10.52;2.10;;;5.00;99.90;;;;;;5054099;28;20025;-53
2021/12/10 11:37:42;;;;;;;8.77;3.15;;;5.20;99.90;;;;;;5055112;28;20116;-51
2021/12/10 11:40:40;;;;;;;9.63;3.55;;;5.10;99.90;;;;;;5055085;28;20055;-52
2021/12/10 11:43:44;;;;;;;10.48;2.95;;;5.10;99.90;;;;;;5053740;28;20055;-54
2021/12/10 11:48:57;;;;;;;4.53;1.90;;;5.10;99.90;;;;;;5055204;28;20100;-51
2021/12/10 11:51:41;;;;;;;6.70;2.33;;;5.20;99.90;;;;;;5053520;28;20079;-51
2021/12/10 11:54:21;;;;;;;7.65;2.08;;;5.20;99.90;;;;;;5054558;28;20029;-51
2021/12/10 11:56:54;;;;;;;7.95;2.25;;;5.10;99.90;;;;;;5054212;28;20174;-50
2021/12/10 11:59:28;;;;;;;6.10;2.20;;;5.10;99.90;;;;;;5054157;28;20017;-48
2021/12/10 12:01:56;;;;;;;5.07;1.98;;;5.20;99.90;;;;;;5054631;28;20043;-48
2021/12/10 12:04:23;;;;;;;6.20;1.83;;;5.10;99.90;;;;;;5053532;28;20032;-47
2021/12/10 12:07:17;;;;;;;4.07;1.52;;;5.20;99.90;;;;;;5053385;28;20017;-51
2021/12/10 12:09:45;;;;;;;8.32;2.08;;;5.20;99.90;;;;;;5054464;28;20021;-49
2021/12/10 12:12:14;;;;;;;6.68;2.28;;;5.20;99.90;;;;;;5053457;28;20021;-50
2021/12/10 12:14:48;;;;;;;6.38;2.10;;;5.20;99.90;;;;;;5054246;28;20029;-54
2021/12/10 12:17:27;;;;;;;8.05;2.40;;;5.30;99.90;;;;;;5054340;28;20029;-49
2021/12/10 12:19:53;;;;;;;8.63;2.30;;;5.00;99.90;;;;;;5053048;28;20166;-53
2021/12/10 12:25:09;;;;;;;12.18;2.35;;;5.00;99.90;;;;;;5054521;28;20036;-51
2021/12/10 12:27:35;;;;;;;10.05;2.60;;;5.10;99.90;;;;;;5053334;28;20112;-50
2021/12/10 12:30:06;;;;;;;5.35;2.63;;;5.10;99.90;;;;;;5054069;28;20059;-48
2021/12/10 12:32:37;;;;;;;3.87;1.90;;;5.20;99.90;;;;;;5054086;28;20438;-51
2021/12/10 12:35:25;;;;;;;15.48;2.38;;;5.10;99.90;;;;;;5054644;28;20025;-47
2021/12/10 12:38:05;;;;;;;5.95;2.05;;;5.10;99.90;;;;;;5052706;28;20063;-49
2021/12/10 12:40:31;;;;;;;4.35;1.73;;;5.10;99.90;;;;;;5053926;28;20017;-52
2021/12/10 12:43:04;;;;;;;5.07;2.00;;;5.20;99.90;;;;;;5052540;28;20025;-49
2021/12/10 12:45:31;;;;;;;3.78;1.55;;;5.20;99.90;;;;;;5053418;28;20028;-51
2021/12/10 12:47:57;;;;;;;3.58;1.75;;;5.30;99.90;;;;;;5053768;28;20017;-48
2021/12/10 12:50:27;;;;;;;8.00;2.38;;;5.30;99.90;;;;;;5053680;28;20084;-47
2021/12/10 12:53:04;;;;;;;5.70;1.98;;;5.30;99.90;;;;;;5052695;28;20464;-47
2021/12/10 12:55:33;;;;;;;4.22;1.70;;;5.00;99.90;;;;;;5052714;28;20033;-49
2021/12/10 12:58:11;;;;;;;4.70;1.50;;;5.30;99.90;;;;;;5053641;28;20029;-50
2021/12/10 13:00:49;;;;;;;4.75;1.95;;;5.40;99.90;;;;;;5052632;28;20052;-53
2021/12/10 13:03:32;;;;;;;10.07;2.05;;;5.50;99.90;;;;;;5052510;28;20048;-47
2021/12/10 13:06:09;;;;;;;5.38;1.75;;;5.40;99.90;;;;;;5052229;28;20024;-51
2021/12/10 13:08:38;;;;;;;8.93;1.67;;;5.20;99.90;;;;;;5053472;28;20021;-53
2021/12/10 13:11:23;;;;;;;6.72;2.08;;;5.10;99.90;;;;;;5051539;28;20029;-51
2021/12/10 13:14:12;;;;;;;7.00;1.98;;;5.10;99.90;;;;;;5052106;28;20063;-52
2021/12/10 13:16:48;;;;;;;4.60;2.55;;;5.40;99.90;;;;;;5053690;28;20032;-50
2021/12/10 13:19:21;;;;;;;4.18;2.60;;;5.40;99.90;;;;;;5053332;28;20032;-51